Terminal Aerodrome Forecast
Issued by NWS

Home | Current Version | Previous Version | Text Only | Print | Product List | Glossary On
Versions: 1 2 3 4 5 6 7 8 9 10 11 12 13 14 15
000
FTUS43 KGRB 192220 AAC
TAFMTW
TAF AMD
KMTW 192220Z 1922/2018 28007KT P6SM VCSH SCT040 OVC070
      TEMPO 1922/1924 32020G30KT 1SM -TSRA BKN025CB
     FM200000 29009KT P6SM VCSH SCT030 BKN070
     FM200200 29006KT P6SM FEW030 SCT080
     FM201400 27006KT P6SM VCSH SCT030 BKN060=

USA.gov is the U.S. government's official web portal to all federal, state and local government web resources and services.